Time;durP1;ratioP1;P1;durP2;ratioP2;P2;SDS_P1;SDS_P2;PMS_P1;PMS_P2;Temp;Humidity;BMP_temperature;BMP_pressure;BME280_temperature;BME280_humidity;BME280_pressure;Samples;Min_cycle;Max_cycle;Signal;HPM_P1;HPM_P2
2023/03/24 00:01:10;;;;;;;0.30;0.30;;;14.40;91.60;;;;;;5086609;28;20032;-80
2023/03/24 00:03:36;;;;;;;1.03;1.00;;;14.30;91.90;;;;;;5096423;28;20054;-82
2023/03/24 00:06:04;;;;;;;0.50;0.50;;;14.10;92.70;;;;;;5089845;28;20040;-81
2023/03/24 00:08:34;;;;;;;0.47;0.47;;;14.10;92.70;;;;;;5095785;28;20027;-80
2023/03/24 00:11:06;;;;;;;0.45;0.45;;;14.10;92.60;;;;;;5101614;28;20026;-81
2023/03/24 00:13:37;;;;;;;2.05;0.50;;;14.20;92.50;;;;;;5084404;28;20565;-80
2023/03/24 00:16:11;;;;;;;0.47;0.47;;;14.20;92.30;;;;;;5099427;28;20032;-81
2023/03/24 00:18:38;;;;;;;3.00;1.63;;;14.20;92.20;;;;;;5078741;28;20027;-81
2023/03/24 00:21:04;;;;;;;;;;;14.20;92.10;;;;;;5084543;28;20080;-80
2023/03/24 00:23:31;;;;;;;0.68;0.68;;;14.20;92.20;;;;;;5092585;28;20439;-80
2023/03/24 00:26:07;;;;;;;0.10;0.10;;;14.20;92.10;;;;;;5101448;28;20408;-80
2023/03/24 00:28:35;;;;;;;1.10;0.35;;;14.10;92.50;;;;;;5096630;28;20028;-81
2023/03/24 00:31:03;;;;;;;0.55;0.55;;;14.00;92.60;;;;;;5098712;28;20637;-80
2023/03/24 00:33:31;;;;;;;0.63;0.63;;;14.00;92.80;;;;;;5094901;28;20024;-80
2023/03/24 00:36:05;;;;;;;0.30;0.30;;;14.00;92.70;;;;;;5088906;28;20050;-81
2023/03/24 00:38:33;;;;;;;0.32;0.32;;;14.00;92.80;;;;;;5072051;28;20024;-80
2023/03/24 00:40:59;;;;;;;0.25;0.25;;;14.00;92.90;;;;;;5101531;28;20019;-80
2023/03/24 00:43:25;;;;;;;0.15;0.15;;;14.00;92.80;;;;;;5083338;28;20028;-81
2023/03/24 00:46:00;;;;;;;0.10;0.10;;;14.10;92.60;;;;;;5088363;28;20038;-80
2023/03/24 00:48:25;;;;;;;0.20;0.20;;;14.10;92.50;;;;;;5082936;28;20030;-80
2023/03/24 00:50:51;;;;;;;0.32;0.20;;;14.00;92.70;;;;;;5098386;28;20023;-80
2023/03/24 00:53:18;;;;;;;0.67;0.67;;;13.80;93.30;;;;;;5096242;28;20134;-81
2023/03/24 00:55:48;;;;;;;0.20;0.20;;;13.80;93.50;;;;;;5098563;28;20036;-81
2023/03/24 00:58:20;;;;;;;0.30;0.30;;;13.70;94.00;;;;;;5074018;28;20035;-81
2023/03/24 01:00:54;;;;;;;0.10;0.10;;;13.80;93.90;;;;;;5080874;28;20056;-81
2023/03/24 01:03:25;;;;;;;0.10;0.10;;;13.80;94.00;;;;;;5094224;28;20048;-80
2023/03/24 01:05:53;;;;;;;0.30;0.30;;;13.80;94.00;;;;;;5088232;28;20453;-79
2023/03/24 01:08:19;;;;;;;0.30;0.30;;;13.80;94.30;;;;;;5088530;28;20030;-80
2023/03/24 01:10:49;;;;;;;0.10;0.10;;;13.70;94.50;;;;;;5098617;28;20034;-79
2023/03/24 01:13:26;;;;;;;1.38;0.75;;;13.70;94.50;;;;;;5089733;28;20027;-79
2023/03/24 01:15:52;;;;;;;;;;;13.70;94.70;;;;;;5077665;28;20835;-80
2023/03/24 01:18:19;;;;;;;0.38;0.38;;;13.70;94.80;;;;;;5096907;28;19908;-81
2023/03/24 01:20:47;;;;;;;0.10;0.10;;;13.60;94.90;;;;;;5094686;28;20036;-81
2023/03/24 01:23:16;;;;;;;0.32;0.32;;;13.70;94.80;;;;;;5095526;28;20194;-80
2023/03/24 01:25:44;;;;;;;0.22;0.22;;;13.60;94.90;;;;;;5094453;28;20073;-80
2023/03/24 01:28:16;;;;;;;0.30;0.30;;;13.60;95.30;;;;;;5097548;28;20043;-80
2023/03/24 01:30:42;;;;;;;0.75;0.73;;;13.60;95.30;;;;;;5086387;28;20031;-80
2023/03/24 01:33:08;;;;;;;0.10;0.10;;;13.60;95.30;;;;;;5102721;28;20043;-81
2023/03/24 01:35:36;;;;;;;0.90;0.67;;;13.50;95.40;;;;;;5100123;28;20061;-80
2023/03/24 01:38:06;;;;;;;0.20;0.20;;;13.50;95.50;;;;;;5091041;28;20023;-80
2023/03/24 01:40:34;;;;;;;0.32;0.30;;;13.50;95.60;;;;;;5098941;28;20547;-81
2023/03/24 01:43:00;;;;;;;0.52;0.52;;;13.50;95.40;;;;;;5098859;28;20023;-80
2023/03/24 01:45:38;;;;;;;3.00;0.98;;;13.60;95.20;;;;;;5101855;28;20034;-79
2023/03/24 01:48:24;;;;;;;0.25;0.20;;;13.60;95.00;;;;;;5083230;28;20050;-78
2023/03/24 01:51:08;;;;;;;0.25;0.25;;;13.60;95.20;;;;;;5097682;28;20028;-79
2023/03/24 01:53:39;;;;;;;0.47;0.47;;;13.60;95.10;;;;;;5089346;28;20092;-79
2023/03/24 01:56:06;;;;;;;0.22;0.22;;;13.60;95.30;;;;;;5098557;28;20474;-79
2023/03/24 01:58:33;;;;;;;;;;;13.50;95.60;;;;;;5092050;28;20802;-80
2023/03/24 02:00:59;;;;;;;0.10;0.10;;;13.50;95.60;;;;;;5068268;28;20422;-80
2023/03/24 02:03:28;;;;;;;0.28;0.28;;;13.60;95.30;;;;;;5092496;28;20059;-79
2023/03/24 02:05:56;;;;;;;0.70;0.70;;;13.70;95.10;;;;;;5077996;28;20463;-80
2023/03/24 02:08:31;;;;;;;0.70;0.70;;;13.60;95.30;;;;;;5085322;28;20063;-80
2023/03/24 02:10:57;;;;;;;0.65;0.65;;;13.40;96.00;;;;;;5072267;28;20027;-79
2023/03/24 02:13:23;;;;;;;0.75;0.52;;;13.30;96.70;;;;;;5073269;28;20056;-80
2023/03/24 02:16:26;;;;;;;0.20;0.20;;;13.10;97.30;;;;;;5090448;28;20585;-80
2023/03/24 02:19:22;;;;;;;0.57;0.20;;;13.10;97.50;;;;;;5093974;28;20031;-82
2023/03/24 02:22:06;;;;;;;0.47;0.47;;;13.20;97.40;;;;;;5089443;28;20024;-80
2023/03/24 02:24:54;;;;;;;0.57;0.32;;;13.20;97.30;;;;;;5088499;28;20028;-82
2023/03/24 02:27:40;;;;;;;0.10;0.10;;;13.20;97.00;;;;;;5090392;28;20028;-80
2023/03/24 02:30:49;;;;;;;0.30;0.30;;;13.20;97.30;;;;;;5096517;28;20454;-80
2023/03/24 02:33:53;;;;;;;0.22;0.22;;;13.00;97.80;;;;;;5097413;28;20031;-81
2023/03/24 02:36:57;;;;;;;1.80;1.50;;;12.90;98.10;;;;;;5094309;28;20036;-81
2023/03/24 02:39:49;;;;;;;0.55;0.43;;;12.90;98.30;;;;;;5098484;28;20034;-81
2023/03/24 02:42:33;;;;;;;0.45;0.45;;;12.80;98.70;;;;;;5092514;28;20094;-81
2023/03/24 02:45:28;;;;;;;0.30;0.30;;;12.60;99.50;;;;;;5095250;28;20023;-82
2023/03/24 02:48:12;;;;;;;0.73;0.35;;;12.60;99.80;;;;;;5091265;28;20472;-81
2023/03/24 02:50:53;;;;;;;0.63;0.63;;;12.70;99.90;;;;;;5100107;28;20019;-82
2023/03/24 02:53:28;;;;;;;0.20;0.20;;;12.90;99.40;;;;;;5095608;28;20114;-81
2023/03/24 02:56:15;;;;;;;0.75;0.57;;;12.90;99.40;;;;;;5073394;28;20039;-81
2023/03/24 02:58:49;;;;;;;0.47;0.47;;;12.90;99.40;;;;;;5088339;28;20135;-83
2023/03/24 03:01:30;;;;;;;1.63;0.60;;;13.00;99.40;;;;;;5092890;28;20108;-83
2023/03/24 03:04:01;;;;;;;0.38;0.38;;;13.00;99.40;;;;;;5076009;28;20178;-80
2023/03/24 03:06:35;;;;;;;1.52;1.20;;;13.10;99.70;;;;;;5098877;28;20039;-83
2023/03/24 03:09:06;;;;;;;1.20;0.47;;;13.00;99.70;;;;;;5080210;28;20032;-81
2023/03/24 03:11:32;;;;;;;0.52;0.52;;;13.00;99.90;;;;;;5095317;28;20034;-81
2023/03/24 03:14:06;;;;;;;0.10;0.10;;;12.80;99.90;;;;;;5101916;28;20077;-81
2023/03/24 03:16:47;;;;;;;0.20;0.20;;;12.80;99.90;;;;;;5080763;28;20036;-82
2023/03/24 03:19:16;;;;;;;0.28;0.28;;;12.70;99.90;;;;;;5092552;28;20038;-82
2023/03/24 03:21:44;;;;;;;0.20;0.20;;;12.70;99.90;;;;;;5102017;28;20077;-83
2023/03/24 03:24:25;;;;;;;0.82;0.80;;;12.50;99.90;;;;;;5090437;28;20035;-80
2023/03/24 03:26:56;;;;;;;0.88;0.88;;;12.50;99.90;;;;;;5090081;28;20024;-81
2023/03/24 03:29:26;;;;;;;0.10;0.10;;;12.30;99.90;;;;;;5096715;28;20022;-82
2023/03/24 03:32:06;;;;;;;0.20;0.20;;;12.10;99.90;;;;;;5097731;28;20024;-80
2023/03/24 03:34:56;;;;;;;1.17;0.40;;;12.20;99.90;;;;;;5095043;28;20039;-80
2023/03/24 03:37:29;;;;;;;0.50;0.50;;;12.10;99.90;;;;;;5099973;28;21009;-82
2023/03/24 03:40:05;;;;;;;0.70;0.70;;;12.10;99.90;;;;;;5101624;28;20027;-80
2023/03/24 03:42:30;;;;;;;0.13;0.13;;;12.00;99.90;;;;;;5086654;28;20032;-81
2023/03/24 03:44:56;;;;;;;0.73;0.68;;;12.00;99.90;;;;;;5085649;28;20051;-81
2023/03/24 03:47:22;;;;;;;0.47;0.47;;;11.90;99.90;;;;;;5103597;28;20023;-82
2023/03/24 03:49:49;;;;;;;0.50;0.40;;;11.90;99.90;;;;;;5101933;28;20027;-83
2023/03/24 03:52:15;;;;;;;;;;;11.90;99.90;;;;;;5100090;28;20031;-81
2023/03/24 03:54:42;;;;;;;0.25;0.25;;;12.00;99.90;;;;;;5079636;28;19914;-82
2023/03/24 03:57:10;;;;;;;0.73;0.63;;;12.00;99.90;;;;;;5091600;28;20040;-82
2023/03/24 03:59:37;;;;;;;0.20;0.20;;;12.00;99.90;;;;;;5090100;28;20016;-82
2023/03/24 04:02:27;;;;;;;0.55;0.55;;;12.10;99.90;;;;;;5096709;28;20027;-81
2023/03/24 04:05:41;;;;;;;0.75;0.60;;;12.20;99.90;;;;;;5093778;28;20059;-82
2023/03/24 04:08:10;;;;;;;0.57;0.57;;;12.20;99.90;;;;;;5006036;28;20282;-82
2023/03/24 04:11:03;;;;;;;0.20;0.20;;;12.20;99.90;;;;;;5001035;28;20038;-82
2023/03/24 04:13:50;;;;;;;0.20;0.20;;;12.20;99.90;;;;;;5062550;28;20059;-80
2023/03/24 04:16:49;;;;;;;0.20;0.17;;;12.00;99.90;;;;;;5086906;28;20043;-81
2023/03/24 04:19:31;;;;;;;0.43;0.43;;;11.80;99.90;;;;;;5084677;28;20054;-81
2023/03/24 04:22:37;;;;;;;0.38;0.38;;;11.70;99.90;;;;;;5103134;28;20027;-80
2023/03/24 04:25:13;;;;;;;0.43;0.43;;;11.50;99.90;;;;;;5087088;28;20031;-81
2023/03/24 04:28:01;;;;;;;0.30;0.30;;;11.30;99.90;;;;;;5099956;28;20802;-80
2023/03/24 04:30:32;;;;;;;0.50;0.50;;;11.30;99.90;;;;;;5069872;28;20593;-81
2023/03/24 04:33:04;;;;;;;0.95;0.45;;;11.30;99.90;;;;;;5093276;28;20327;-80
2023/03/24 04:35:42;;;;;;;0.73;0.70;;;11.30;99.90;;;;;;5096922;28;20107;-81
2023/03/24 04:38:24;;;;;;;0.30;0.30;;;11.10;99.90;;;;;;5084590;28;20071;-80
2023/03/24 04:40:54;;;;;;;1.27;1.13;;;11.00;99.90;;;;;;5101985;28;20016;-80
2023/03/24 04:43:24;;;;;;;0.20;0.20;;;11.10;99.90;;;;;;5102441;28;20024;-81
2023/03/24 04:45:56;;;;;;;0.57;0.57;;;11.10;99.90;;;;;;5095970;28;20016;-81
2023/03/24 04:48:23;;;;;;;0.32;0.32;;;11.10;99.90;;;;;;5102728;28;20174;-81
2023/03/24 04:50:53;;;;;;;;;;;11.10;99.90;;;;;;5103347;28;20537;-82
2023/03/24 04:53:19;;;;;;;0.20;0.20;;;11.20;99.90;;;;;;5097529;28;19911;-80
2023/03/24 04:56:22;;;;;;;22.30;0.80;;;11.40;99.90;;;;;;5102835;27;20031;-80
2023/03/24 04:58:48;;;;;;;0.10;0.10;;;11.30;99.90;;;;;;5100697;28;20066;-80
2023/03/24 05:01:15;;;;;;;0.13;0.13;;;11.20;99.90;;;;;;5092793;28;20055;-80
2023/03/24 05:03:44;;;;;;;0.40;0.40;;;11.20;99.90;;;;;;5101402;28;20454;-80
2023/03/24 05:06:11;;;;;;;0.43;0.38;;;11.10;99.90;;;;;;5083971;28;20505;-80
2023/03/24 05:08:37;;;;;;;;;;;11.10;99.90;;;;;;5085216;28;20135;-80
2023/03/24 05:11:03;;;;;;;1.27;1.27;;;11.20;99.90;;;;;;5099642;28;20655;-79
2023/03/24 05:13:29;;;;;;;0.20;0.20;;;11.30;99.90;;;;;;5101731;28;20028;-80
2023/03/24 05:15:55;;;;;;;0.20;0.20;;;11.30;99.90;;;;;;5079534;28;20035;-80
2023/03/24 05:18:21;;;;;;;0.10;0.10;;;11.40;99.90;;;;;;5093930;28;20045;-80
2023/03/24 05:20:46;;;;;;;0.45;0.45;;;11.40;99.90;;;;;;5101479;28;20504;-80
2023/03/24 05:23:12;;;;;;;0.10;0.10;;;11.40;99.90;;;;;;5084139;28;20571;-81
2023/03/24 05:25:37;;;;;;;0.77;0.77;;;11.30;99.90;;;;;;5096678;28;20548;-80
2023/03/24 05:28:03;;;;;;;0.20;0.20;;;11.50;99.90;;;;;;5101797;28;20407;-79
2023/03/24 05:30:30;;;;;;;0.10;0.10;;;11.60;99.90;;;;;;5101283;28;20047;-81
2023/03/24 05:32:55;;;;;;;1.45;0.95;;;11.60;99.90;;;;;;5090552;28;20020;-81
2023/03/24 05:35:23;;;;;;;0.50;0.50;;;11.70;99.90;;;;;;5102281;28;20508;-80
2023/03/24 05:37:49;;;;;;;0.57;0.57;;;11.60;99.90;;;;;;5099342;28;20581;-81
2023/03/24 05:40:15;;;;;;;0.40;0.40;;;11.50;99.90;;;;;;5065459;28;20028;-78
2023/03/24 05:42:41;;;;;;;0.55;0.55;;;11.60;99.90;;;;;;5092643;28;20423;-80
2023/03/24 05:45:08;;;;;;;0.40;0.40;;;11.60;99.90;;;;;;5089851;28;20039;-79
2023/03/24 05:47:33;;;;;;;0.20;0.20;;;11.60;99.90;;;;;;5097880;28;20043;-79
2023/03/24 05:49:59;;;;;;;0.57;0.57;;;11.70;99.90;;;;;;5102306;28;20080;-82
2023/03/24 05:52:25;;;;;;;1.00;0.25;;;11.70;99.90;;;;;;5098482;28;20024;-80
2023/03/24 05:54:51;;;;;;;0.73;0.73;;;11.80;99.90;;;;;;5087379;28;20027;-81
2023/03/24 05:57:19;;;;;;;0.55;0.43;;;11.80;99.90;;;;;;5099890;28;20047;-79
2023/03/24 05:59:45;;;;;;;0.32;0.32;;;11.90;99.90;;;;;;5098336;28;20058;-81
2023/03/24 06:02:11;;;;;;;0.20;0.20;;;11.90;99.90;;;;;;5092568;28;20111;-80
2023/03/24 06:04:36;;;;;;;0.30;0.30;;;11.90;99.90;;;;;;5096461;28;20556;-82
2023/03/24 06:07:03;;;;;;;0.10;0.10;;;12.00;99.90;;;;;;5091336;28;20050;-85
2023/03/24 06:09:34;;;;;;;0.40;0.40;;;12.10;99.90;;;;;;5079783;28;20047;-84
2023/03/24 06:12:00;;;;;;;0.25;0.25;;;12.00;99.90;;;;;;5094256;28;20031;-83
2023/03/24 06:14:26;;;;;;;1.33;0.70;;;11.90;99.90;;;;;;5096470;28;20035;-81
2023/03/24 06:16:52;;;;;;;7.72;1.17;;;11.90;99.90;;;;;;5092521;28;20043;-79
2023/03/24 06:19:21;;;;;;;0.15;0.15;;;12.00;99.90;;;;;;5093151;28;20480;-82
2023/03/24 06:21:49;;;;;;;0.47;0.47;;;12.00;99.90;;;;;;5096944;28;20024;-80
2023/03/24 06:24:16;;;;;;;1.20;1.17;;;12.00;99.90;;;;;;5069231;28;20514;-81
2023/03/24 06:26:43;;;;;;;0.63;0.63;;;12.10;99.90;;;;;;5094321;28;20028;-81
2023/03/24 06:29:09;;;;;;;0.43;0.43;;;12.00;99.90;;;;;;5091538;28;20028;-83
2023/03/24 06:31:36;;;;;;;0.10;0.10;;;12.00;99.90;;;;;;5077937;28;20031;-80
2023/03/24 06:34:03;;;;;;;0.10;0.10;;;12.10;99.90;;;;;;5092039;28;20119;-80
2023/03/24 06:36:28;;;;;;;0.30;0.30;;;12.20;99.90;;;;;;5094880;28;20043;-82
2023/03/24 06:38:55;;;;;;;0.13;0.13;;;12.20;99.90;;;;;;5093315;28;20031;-81
2023/03/24 06:41:21;;;;;;;0.10;0.10;;;12.20;99.90;;;;;;5104342;28;20034;-83
2023/03/24 06:43:47;;;;;;;0.75;0.75;;;12.20;99.90;;;;;;5103699;28;20301;-79
2023/03/24 06:46:12;;;;;;;0.17;0.17;;;12.30;99.90;;;;;;5095587;28;20127;-79
2023/03/24 06:48:38;;;;;;;0.00;0.00;;;12.40;99.90;;;;;;5091788;28;20081;-79
2023/03/24 06:51:05;;;;;;;0.00;0.00;;;12.40;99.90;;;;;;5101886;28;21015;-81
2023/03/24 06:53:30;;;;;;;0.70;0.70;;;12.50;99.90;;;;;;5098556;28;20093;-80
2023/03/24 06:55:56;;;;;;;0.60;0.30;;;12.60;99.90;;;;;;5105645;28;20047;-79
2023/03/24 06:58:22;;;;;;;0.30;0.30;;;12.70;99.90;;;;;;5103861;28;20062;-78
2023/03/24 07:00:47;;;;;;;0.35;0.35;;;12.60;99.90;;;;;;5104015;28;20028;-79
2023/03/24 07:03:16;;;;;;;0.73;0.73;;;12.50;99.90;;;;;;5105135;28;20038;-79
2023/03/24 07:05:44;;;;;;;0.60;0.60;;;12.50;99.90;;;;;;5103012;28;20692;-81
2023/03/24 07:08:11;;;;;;;0.50;0.50;;;12.50;99.90;;;;;;5106249;28;20208;-81
2023/03/24 07:10:38;;;;;;;;;;;12.60;99.90;;;;;;5106559;28;20034;-79
2023/03/24 07:13:04;;;;;;;0.35;0.35;;;12.80;99.90;;;;;;5102194;28;19954;-80
2023/03/24 07:15:30;;;;;;;0.20;0.20;;;12.70;99.90;;;;;;5100785;28;20489;-79
2023/03/24 07:17:56;;;;;;;0.47;0.47;;;12.60;99.90;;;;;;5105332;28;20077;-78
2023/03/24 07:20:22;;;;;;;0.35;0.25;;;12.60;99.90;;;;;;5104427;28;20038;-80
2023/03/24 07:22:48;;;;;;;0.60;0.60;;;12.60;99.90;;;;;;5102976;28;20031;-79
2023/03/24 07:25:18;;;;;;;0.45;0.45;;;12.70;99.90;;;;;;5104507;28;20027;-79
2023/03/24 07:27:45;;;;;;;0.77;0.77;;;12.80;99.90;;;;;;5102479;28;20108;-80
2023/03/24 07:30:12;;;;;;;0.57;0.57;;;12.70;99.90;;;;;;5098428;28;20035;-79
2023/03/24 07:32:38;;;;;;;0.38;0.38;;;12.60;99.90;;;;;;5097988;28;20042;-79
2023/03/24 07:35:09;;;;;;;4.18;2.78;;;12.70;99.90;;;;;;5101557;28;20099;-78
2023/03/24 07:37:36;;;;;;;0.65;0.65;;;12.60;99.90;;;;;;5104654;28;20085;-78
2023/03/24 07:40:10;;;;;;;1.17;1.10;;;12.60;99.90;;;;;;5100611;28;20530;-78
2023/03/24 07:42:43;;;;;;;1.30;0.55;;;12.60;99.90;;;;;;5105038;28;20030;-79
2023/03/24 07:45:10;;;;;;;0.40;0.40;;;12.60;99.90;;;;;;5103028;28;20027;-78
2023/03/24 07:47:37;;;;;;;3.17;1.50;;;12.60;99.90;;;;;;5103407;28;20030;-78
2023/03/24 07:50:08;;;;;;;;;;;12.50;99.90;;;;;;5097559;28;20076;-79
2023/03/24 07:52:38;;;;;;;5.13;2.80;;;12.40;99.90;;;;;;5096012;28;19912;-78
2023/03/24 07:55:07;;;;;;;2.22;2.00;;;12.40;99.90;;;;;;5101951;28;20065;-78
2023/03/24 07:57:36;;;;;;;2.85;1.65;;;12.40;99.90;;;;;;5079821;28;20722;-79
2023/03/24 08:00:08;;;;;;;2.45;1.85;;;12.40;99.90;;;;;;5096609;28;20058;-78
2023/03/24 08:02:33;;;;;;;2.65;1.65;;;12.50;99.90;;;;;;5092021;28;20035;-78
2023/03/24 08:04:59;;;;;;;2.55;2.38;;;12.50;99.90;;;;;;5092973;28;20768;-78
2023/03/24 08:07:25;;;;;;;0.45;0.45;;;12.40;99.90;;;;;;5089945;28;20026;-78
2023/03/24 08:09:50;;;;;;;0.57;0.57;;;12.50;99.90;;;;;;5071188;28;20024;-78
2023/03/24 08:12:16;;;;;;;0.30;0.30;;;12.40;99.90;;;;;;5083865;28;20033;-78
2023/03/24 08:14:42;;;;;;;0.10;0.10;;;12.20;99.90;;;;;;5089449;27;20585;-78
2023/03/24 08:17:08;;;;;;;0.37;0.37;;;12.30;99.90;;;;;;5103923;28;20403;-78
2023/03/24 08:19:33;;;;;;;1.38;1.27;;;12.30;99.90;;;;;;5101203;28;20090;-79
2023/03/24 08:21:59;;;;;;;0.20;0.20;;;12.40;99.90;;;;;;5092810;28;20625;-78
2023/03/24 08:24:25;;;;;;;0.17;0.17;;;12.40;99.90;;;;;;5103427;28;20027;-78
2023/03/24 08:26:51;;;;;;;0.55;0.55;;;12.40;99.90;;;;;;5078345;28;20036;-78
2023/03/24 08:29:17;;;;;;;1.40;1.05;;;12.50;99.90;;;;;;5098863;28;20110;-78
2023/03/24 08:31:42;;;;;;;0.30;0.30;;;12.40;99.90;;;;;;5102603;28;20064;-78
2023/03/24 08:34:10;;;;;;;0.20;0.20;;;12.30;99.90;;;;;;5093994;28;20020;-78
2023/03/24 08:36:36;;;;;;;0.52;0.52;;;12.40;99.90;;;;;;5092747;28;20118;-78
2023/03/24 08:39:05;;;;;;;0.20;0.20;;;12.30;99.90;;;;;;5101875;28;20103;-78
2023/03/24 08:41:33;;;;;;;0.10;0.10;;;12.40;99.90;;;;;;5096510;28;20032;-79
2023/03/24 08:44:04;;;;;;;1.25;0.50;;;12.40;99.90;;;;;;5087644;28;20371;-78
2023/03/24 08:46:32;;;;;;;0.20;0.20;;;12.50;99.90;;;;;;5099400;28;20039;-78
2023/03/24 08:48:58;;;;;;;4.78;0.55;;;12.60;99.90;;;;;;5099808;28;20597;-77
2023/03/24 08:51:25;;;;;;;0.68;0.68;;;12.50;99.90;;;;;;5083501;28;20031;-78
2023/03/24 08:53:51;;;;;;;;;;;12.40;99.90;;;;;;5100528;28;20019;-78
2023/03/24 08:56:18;;;;;;;0.28;0.28;;;12.40;99.90;;;;;;5100538;28;19922;-78
2023/03/24 08:58:49;;;;;;;0.38;0.30;;;12.40;99.90;;;;;;5081620;28;20055;-77
2023/03/24 09:01:19;;;;;;;0.82;0.82;;;12.30;99.90;;;;;;5092968;28;20498;-78
2023/03/24 09:03:46;;;;;;;2.03;0.80;;;12.30;99.90;;;;;;5088700;28;20106;-78
2023/03/24 09:06:12;;;;;;;2.33;1.53;;;12.20;99.90;;;;;;5092066;28;20031;-78
2023/03/24 09:08:38;;;;;;;0.60;0.60;;;12.20;99.90;;;;;;5102602;28;20764;-78
2023/03/24 09:11:05;;;;;;;0.98;0.98;;;12.20;99.90;;;;;;5079205;28;20035;-77
2023/03/24 09:13:31;;;;;;;0.50;0.50;;;12.30;99.90;;;;;;5088202;28;20024;-78
2023/03/24 09:16:00;;;;;;;0.90;0.90;;;12.20;99.90;;;;;;5074104;28;20070;-78
2023/03/24 09:18:27;;;;;;;2.15;0.60;;;12.20;99.90;;;;;;5083920;28;20039;-77
2023/03/24 09:20:52;;;;;;;0.20;0.20;;;12.10;99.90;;;;;;5100265;28;20576;-78
2023/03/24 09:23:20;;;;;;;0.15;0.15;;;12.20;99.90;;;;;;5100198;28;20028;-78
2023/03/24 09:25:48;;;;;;;0.47;0.47;;;12.00;99.90;;;;;;5097505;28;20020;-78
2023/03/24 09:28:15;;;;;;;0.85;0.85;;;11.90;99.90;;;;;;5080259;28;20696;-78
2023/03/24 09:30:41;;;;;;;0.63;0.63;;;12.00;99.90;;;;;;5089327;28;20030;-78
2023/03/24 09:33:07;;;;;;;12.10;0.75;;;12.10;99.90;;;;;;5090930;28;20024;-78
2023/03/24 09:35:33;;;;;;;3.53;0.60;;;12.10;99.90;;;;;;5070663;28;20035;-78
2023/03/24 09:37:59;;;;;;;0.50;0.50;;;12.30;99.90;;;;;;5101259;28;20110;-78
2023/03/24 09:40:30;;;;;;;0.93;0.90;;;12.50;99.90;;;;;;5102622;28;20023;-78
2023/03/24 09:43:05;;;;;;;4.38;2.47;;;12.70;99.90;;;;;;5093254;28;20068;-77
2023/03/24 09:45:35;;;;;;;11.55;0.85;;;12.50;99.90;;;;;;5092620;28;20035;-77
2023/03/24 09:48:17;;;;;;;0.80;0.80;;;12.50;99.90;;;;;;5095691;28;20054;-78
2023/03/24 09:51:05;;;;;;;3.17;2.97;;;12.30;99.90;;;;;;5099548;28;20092;-79
2023/03/24 09:53:50;;;;;;;1.10;1.05;;;12.20;99.90;;;;;;5102854;28;20038;-78
2023/03/24 09:56:19;;;;;;;0.68;0.68;;;12.30;99.90;;;;;;5100026;28;20093;-78
2023/03/24 09:58:52;;;;;;;3.33;3.03;;;12.30;99.90;;;;;;5089133;28;20105;-78
2023/03/24 10:01:18;;;;;;;4.78;3.85;;;12.30;99.90;;;;;;5083253;28;20548;-78
2023/03/24 10:03:44;;;;;;;4.85;4.53;;;12.30;99.90;;;;;;5099172;28;20047;-78
2023/03/24 10:06:14;;;;;;;17.27;9.27;;;12.30;99.90;;;;;;5101860;28;20062;-78
2023/03/24 10:08:48;;;;;;;7.57;1.52;;;12.30;99.90;;;;;;5101890;28;20019;-78
2023/03/24 10:11:20;;;;;;;0.73;0.73;;;12.50;99.90;;;;;;5090891;28;20554;-78
2023/03/24 10:14:04;;;;;;;0.88;0.88;;;12.60;99.90;;;;;;5089747;28;20050;-78
2023/03/24 10:16:53;;;;;;;2.13;0.93;;;12.60;99.90;;;;;;5087387;28;20032;-78
2023/03/24 10:19:46;;;;;;;2.67;1.83;;;12.50;99.90;;;;;;5095664;28;20062;-78
2023/03/24 10:22:26;;;;;;;5.55;1.02;;;12.30;99.90;;;;;;5087927;28;20576;-78
2023/03/24 10:25:07;;;;;;;0.52;0.32;;;12.10;99.90;;;;;;5065818;28;20135;-78
2023/03/24 10:27:58;;;;;;;0.30;0.30;;;12.10;99.90;;;;;;5097174;28;20059;-78
2023/03/24 10:30:36;;;;;;;3.75;1.83;;;12.20;99.90;;;;;;5090965;28;20035;-78
2023/03/24 10:33:02;;;;;;;1.30;1.27;;;12.20;99.90;;;;;;5100733;28;20103;-78
2023/03/24 10:35:36;;;;;;;0.43;0.43;;;12.30;99.90;;;;;;5093440;28;20613;-78
2023/03/24 10:38:10;;;;;;;4.22;0.40;;;12.10;99.90;;;;;;5093333;28;20102;-78
2023/03/24 10:40:36;;;;;;;1.95;0.35;;;11.80;99.90;;;;;;5101664;28;20102;-78
2023/03/24 10:43:04;;;;;;;1.00;1.00;;;11.80;99.90;;;;;;5092514;28;20543;-77
2023/03/24 10:45:35;;;;;;;0.40;0.40;;;11.60;99.90;;;;;;5092111;28;20110;-77
2023/03/24 10:48:02;;;;;;;0.55;0.55;;;11.70;99.90;;;;;;5073841;28;20120;-78
2023/03/24 10:50:31;;;;;;;0.57;0.57;;;11.60;99.90;;;;;;5082917;28;20031;-78
2023/03/24 10:52:57;;;;;;;0.30;0.30;;;11.50;99.90;;;;;;5082240;28;20031;-77
2023/03/24 10:55:35;;;;;;;0.43;0.28;;;11.70;99.90;;;;;;5102060;28;20024;-78
2023/03/24 10:58:00;;;;;;;0.22;0.22;;;11.50;99.90;;;;;;5101822;28;20502;-78
2023/03/24 11:00:30;;;;;;;0.20;0.20;;;11.30;99.90;;;;;;5097917;28;20028;-77
2023/03/24 11:02:59;;;;;;;1.58;0.95;;;11.50;99.90;;;;;;5085903;28;20036;-78
2023/03/24 11:05:32;;;;;;;0.30;0.30;;;11.50;99.90;;;;;;5098733;28;20040;-78
2023/03/24 11:08:24;;;;;;;0.10;0.10;;;11.40;99.90;;;;;;5074214;28;20027;-78
2023/03/24 11:10:50;;;;;;;0.10;0.10;;;11.40;99.90;;;;;;5095062;28;20028;-78
2023/03/24 11:13:34;;;;;;;0.10;0.10;;;11.50;99.90;;;;;;5091317;28;20029;-78
2023/03/24 11:16:15;;;;;;;0.10;0.10;;;11.30;99.90;;;;;;5096431;28;20062;-77
2023/03/24 11:18:58;;;;;;;0.17;0.17;;;10.90;99.90;;;;;;5099636;28;20104;-77
2023/03/24 11:21:25;;;;;;;0.10;0.10;;;11.00;99.90;;;;;;5082786;28;20039;-77
2023/03/24 11:23:50;;;;;;;0.10;0.10;;;11.00;99.90;;;;;;5091788;28;20765;-77
2023/03/24 11:26:21;;;;;;;0.10;0.10;;;11.00;99.90;;;;;;5099944;28;20020;-77
2023/03/24 11:28:51;;;;;;;0.45;0.45;;;10.80;99.90;;;;;;5096029;28;20103;-77
2023/03/24 11:31:29;;;;;;;0.25;0.25;;;10.80;99.90;;;;;;5080152;28;20469;-78
2023/03/24 11:34:23;;;;;;;1.13;0.95;;;10.70;99.90;;;;;;5097268;28;20102;-77
2023/03/24 11:36:53;;;;;;;0.10;0.10;;;10.20;99.90;;;;;;5086310;28;20085;-77
2023/03/24 11:39:27;;;;;;;0.32;0.32;;;10.30;99.90;;;;;;5103801;28;20114;-78
2023/03/24 11:42:03;;;;;;;0.35;0.35;;;10.40;99.90;;;;;;5104174;28;20031;-78
2023/03/24 11:44:38;;;;;;;0.10;0.10;;;10.60;99.90;;;;;;5095778;28;20056;-78
2023/03/24 11:47:23;;;;;;;0.13;0.13;;;10.80;99.90;;;;;;5073658;28;20082;-77
2023/03/24 11:50:10;;;;;;;0.17;0.17;;;10.90;99.90;;;;;;5089505;28;20027;-77
2023/03/24 11:52:51;;;;;;;0.77;0.63;;;10.80;99.90;;;;;;5101545;28;20034;-78
2023/03/24 11:55:40;;;;;;;0.20;0.20;;;11.00;99.90;;;;;;5101323;28;20116;-77
2023/03/24 11:58:26;;;;;;;0.10;0.10;;;11.10;99.90;;;;;;5074746;28;20906;-78
2023/03/24 12:01:02;;;;;;;0.10;0.10;;;11.20;99.90;;;;;;5089117;28;20878;-78
2023/03/24 12:03:47;;;;;;;0.20;0.20;;;11.20;99.90;;;;;;5102340;28;20039;-78
2023/03/24 12:06:22;;;;;;;0.70;0.70;;;11.00;99.90;;;;;;5083012;28;20430;-78
2023/03/24 12:08:53;;;;;;;0.10;0.10;;;11.00;99.90;;;;;;5099203;28;20039;-77
2023/03/24 12:11:48;;;;;;;0.13;0.13;;;11.20;99.90;;;;;;5077912;28;20032;-77
2023/03/24 12:14:24;;;;;;;1.55;0.57;;;11.70;99.90;;;;;;5067826;28;20035;-78
2023/03/24 12:17:11;;;;;;;0.25;0.25;;;12.00;99.90;;;;;;5095452;28;20039;-78
2023/03/24 12:20:07;;;;;;;0.68;0.65;;;12.20;99.90;;;;;;5096955;28;20036;-78
2023/03/24 12:22:58;;;;;;;0.30;0.30;;;12.10;99.90;;;;;;5091302;28;20466;-78
2023/03/24 12:26:13;;;;;;;0.22;0.22;;;12.20;99.90;;;;;;5092827;28;20024;-77
2023/03/24 12:29:40;;;;;;;0.17;0.17;;;12.50;99.90;;;;;;5075760;28;20554;-77
2023/03/24 12:32:26;;;;;;;0.10;0.10;;;12.90;99.90;;;;;;5010118;28;20041;-77
2023/03/24 12:35:24;;;;;;;0.30;0.30;;;12.90;99.90;;;;;;5095501;28;20415;-77
2023/03/24 12:38:17;;;;;;;0.40;0.22;;;13.00;99.90;;;;;;5017928;28;20551;-77
2023/03/24 12:40:51;;;;;;;0.30;0.30;;;12.80;99.90;;;;;;5094541;28;20490;-77
2023/03/24 12:43:26;;;;;;;0.52;0.35;;;12.70;99.90;;;;;;5086455;28;20020;-77
2023/03/24 12:45:57;;;;;;;0.30;0.30;;;12.50;99.90;;;;;;5098795;28;20036;-77
2023/03/24 12:48:37;;;;;;;0.20;0.20;;;12.50;99.90;;;;;;5095485;28;20510;-78
2023/03/24 12:51:20;;;;;;;0.22;0.22;;;12.50;99.90;;;;;;5101278;28;20139;-78
2023/03/24 12:54:16;;;;;;;0.70;0.35;;;12.20;99.90;;;;;;5089736;28;20030;-77
2023/03/24 12:56:55;;;;;;;0.10;0.10;;;12.30;99.90;;;;;;5093382;28;20418;-77
2023/03/24 12:59:29;;;;;;;0.40;0.40;;;12.40;99.90;;;;;;5099865;28;20122;-77
2023/03/24 13:02:34;;;;;;;0.30;0.30;;;12.30;99.90;;;;;;5097758;28;20859;-77
2023/03/24 13:05:06;;;;;;;0.10;0.10;;;12.50;99.90;;;;;;5056664;28;20063;-77
2023/03/24 13:07:37;;;;;;;0.17;0.17;;;12.80;99.90;;;;;;5072546;28;20107;-77
2023/03/24 13:10:19;;;;;;;0.10;0.10;;;12.50;99.90;;;;;;5067286;28;20024;-78
2023/03/24 13:13:02;;;;;;;0.00;0.00;;;12.80;99.90;;;;;;5077583;28;20021;-77
2023/03/24 13:15:37;;;;;;;0.17;0.17;;;12.90;99.90;;;;;;5072489;28;20099;-77
2023/03/24 13:18:11;;;;;;;0.20;0.20;;;12.90;99.90;;;;;;5069719;28;20058;-77